Time;durP1;ratioP1;P1;durP2;ratioP2;P2;SDS_P1;SDS_P2;PMS_P1;PMS_P2;Temp;Humidity;BMP_temperature;BMP_pressure;BME280_temperature;BME280_humidity;BME280_pressure;Samples;Min_cycle;Max_cycle;Signal;HPM_P1;HPM_P2
2023/10/30 00:02:02;;;;;;;2.33;0.95;;;;;;;;;;5045106;28;20067;-62
2023/10/30 00:04:28;;;;;;;2.58;0.90;;;;;;;;;;5038994;28;20439;-62
2023/10/30 00:06:54;;;;;;;3.75;1.15;;;;;;;;;;5043295;28;20061;-62
2023/10/30 00:09:20;;;;;;;4.85;0.85;;;;;;;;;;5042225;28;20095;-62
2023/10/30 00:11:47;;;;;;;4.13;0.88;;;;;;;;;;5044851;28;20040;-62
2023/10/30 00:14:14;;;;;;;1.98;0.68;;;;;;;;;;5044050;28;20057;-62
2023/10/30 00:16:40;;;;;;;2.78;0.90;;;;;;;;;;5043000;28;20101;-63
2023/10/30 00:19:06;;;;;;;1.63;0.85;;;;;;;;;;5042282;28;20044;-62
2023/10/30 00:21:32;;;;;;;1.38;0.77;;;;;;;;;;5044260;28;20406;-62
2023/10/30 00:23:59;;;;;;;1.52;0.82;;;;;;;;;;5042276;28;20044;-62
2023/10/30 00:26:26;;;;;;;2.17;0.52;;;;;;;;;;5043283;28;20057;-62
2023/10/30 00:28:52;;;;;;;4.30;0.95;;;;;;;;;;5041737;28;20056;-62
2023/10/30 00:31:18;;;;;;;1.27;0.50;;;;;;;;;;5042342;28;20057;-63
2023/10/30 00:33:44;;;;;;;0.98;0.50;;;;;;;;;;5043378;28;20522;-62
2023/10/30 00:36:10;;;;;;;1.83;0.60;;;;;;;;;;5041183;28;20057;-62
2023/10/30 00:38:36;;;;;;;1.35;0.80;;;;;;;;;;5044054;28;20049;-62
2023/10/30 00:41:02;;;;;;;3.00;0.85;;;;;;;;;;5043619;28;20045;-62
2023/10/30 00:43:28;;;;;;;2.50;0.73;;;;;;;;;;5041433;28;20037;-62
2023/10/30 00:45:54;;;;;;;1.55;0.60;;;;;;;;;;5043931;28;20037;-63
2023/10/30 00:48:22;;;;;;;2.30;0.75;;;;;;;;;;5041360;28;20372;-63
2023/10/30 00:50:48;;;;;;;1.65;0.57;;;;;;;;;;5041681;28;20141;-63
2023/10/30 00:53:14;;;;;;;2.50;0.73;;;;;;;;;;5042142;28;20080;-62
2023/10/30 00:55:40;;;;;;;2.50;0.50;;;;;;;;;;5041642;28;20128;-62
2023/10/30 00:58:07;;;;;;;2.55;0.50;;;;;;;;;;5043090;28;20049;-62
2023/10/30 01:00:34;;;;;;;2.33;1.05;;;;;;;;;;5041629;28;20053;-62
2023/10/30 01:03:00;;;;;;;1.13;0.43;;;;;;;;;;5041358;28;20505;-62
2023/10/30 01:05:26;;;;;;;0.90;0.40;;;;;;;;;;5042163;28;20051;-63
2023/10/30 01:07:52;;;;;;;4.75;0.82;;;;;;;;;;5042682;28;20052;-62
2023/10/30 01:10:19;;;;;;;1.05;0.40;;;;;;;;;;5041366;28;20140;-62
2023/10/30 01:12:45;;;;;;;0.60;0.40;;;;;;;;;;5041124;28;20049;-62
2023/10/30 01:15:11;;;;;;;2.83;0.85;;;;;;;;;;5041527;28;20079;-62
2023/10/30 01:17:37;;;;;;;1.25;0.40;;;;;;;;;;5040461;28;20049;-62
2023/10/30 01:20:03;;;;;;;0.28;0.28;;;;;;;;;;5041822;28;20206;-62
2023/10/30 01:22:29;;;;;;;1.98;0.55;;;;;;;;;;5041027;28;20041;-62
2023/10/30 01:24:56;;;;;;;2.58;0.73;;;;;;;;;;5042001;28;20127;-62
2023/10/30 01:27:22;;;;;;;2.92;0.68;;;;;;;;;;5041327;28;20056;-63
2023/10/30 01:29:48;;;;;;;1.42;0.50;;;;;;;;;;5041683;28;20040;-62
2023/10/30 01:32:14;;;;;;;2.80;0.90;;;;;;;;;;5041085;28;20148;-62
2023/10/30 01:34:40;;;;;;;0.60;0.40;;;;;;;;;;5041853;28;20123;-62
2023/10/30 01:37:06;;;;;;;1.80;0.47;;;;;;;;;;5041161;28;20052;-62
2023/10/30 01:39:32;;;;;;;0.50;0.43;;;;;;;;;;5040450;28;20049;-62
2023/10/30 01:41:58;;;;;;;1.15;0.50;;;;;;;;;;5040299;28;20041;-62
2023/10/30 01:44:24;;;;;;;1.17;0.40;;;;;;;;;;5040021;28;20048;-62
2023/10/30 01:46:50;;;;;;;1.38;0.85;;;;;;;;;;5040388;28;20049;-62
2023/10/30 01:49:17;;;;;;;0.40;0.35;;;;;;;;;;5042436;28;20476;-62
2023/10/30 01:51:43;;;;;;;0.52;0.28;;;;;;;;;;5043523;28;20455;-62
2023/10/30 01:54:09;;;;;;;0.77;0.60;;;;;;;;;;5039511;28;20519;-63
2023/10/30 01:56:35;;;;;;;1.50;0.40;;;;;;;;;;5040925;28;20052;-62
2023/10/30 01:59:01;;;;;;;0.60;0.20;;;;;;;;;;5041984;28;20087;-62
2023/10/30 02:01:27;;;;;;;3.10;0.55;;;;;;;;;;5039866;28;20057;-62
2023/10/30 02:03:55;;;;;;;0.63;0.40;;;;;;;;;;5041016;28;20048;-62
2023/10/30 02:06:21;;;;;;;1.08;0.38;;;;;;;;;;5040290;28;20068;-63
2023/10/30 02:08:47;;;;;;;1.67;0.50;;;;;;;;;;5038767;28;20063;-62
2023/10/30 02:11:13;;;;;;;0.80;0.40;;;;;;;;;;5040443;28;20075;-62
2023/10/30 02:13:39;;;;;;;0.63;0.38;;;;;;;;;;5042150;28;20076;-62
2023/10/30 02:16:06;;;;;;;0.70;0.50;;;;;;;;;;5040462;28;20128;-62
2023/10/30 02:18:32;;;;;;;1.45;0.55;;;;;;;;;;5041443;28;20045;-62
2023/10/30 02:20:58;;;;;;;1.02;0.30;;;;;;;;;;5040456;28;20045;-63
2023/10/30 02:23:24;;;;;;;0.68;0.35;;;;;;;;;;5039486;28;20067;-62
2023/10/30 02:25:50;;;;;;;1.25;0.60;;;;;;;;;;5040714;28;20056;-63
2023/10/30 02:28:16;;;;;;;1.92;0.50;;;;;;;;;;5039604;28;20483;-62
2023/10/30 02:30:42;;;;;;;1.55;0.57;;;;;;;;;;5040379;28;20065;-62
2023/10/30 02:33:08;;;;;;;0.98;0.65;;;;;;;;;;5040422;28;20390;-62
2023/10/30 02:35:34;;;;;;;0.60;0.50;;;;;;;;;;5039386;28;20083;-62
2023/10/30 02:38:00;;;;;;;0.95;0.60;;;;;;;;;;5042347;28;20077;-62
2023/10/30 02:40:26;;;;;;;0.85;0.38;;;;;;;;;;5041708;28;20459;-62
2023/10/30 02:42:53;;;;;;;0.55;0.47;;;;;;;;;;5039963;28;20049;-62
2023/10/30 02:45:19;;;;;;;1.25;0.65;;;;;;;;;;5039313;28;20072;-63
2023/10/30 02:47:45;;;;;;;1.42;0.80;;;;;;;;;;5040245;28;20041;-62
2023/10/30 02:50:12;;;;;;;1.55;0.73;;;;;;;;;;5040159;28;20052;-62
2023/10/30 02:52:38;;;;;;;2.00;0.80;;;;;;;;;;5040590;28;20488;-62
2023/10/30 02:55:04;;;;;;;1.75;0.90;;;;;;;;;;5041587;28;20458;-62
2023/10/30 02:57:30;;;;;;;1.83;1.00;;;;;;;;;;5042568;28;20044;-62
2023/10/30 02:59:56;;;;;;;1.45;1.05;;;;;;;;;;5046710;28;20045;-63
2023/10/30 03:02:22;;;;;;;1.23;1.13;;;;;;;;;;5045717;28;20430;-62
2023/10/30 03:04:48;;;;;;;2.08;1.13;;;;;;;;;;5043938;28;20037;-62
2023/10/30 03:07:16;;;;;;;3.42;0.80;;;;;;;;;;5047405;28;20084;-62
2023/10/30 03:09:42;;;;;;;1.73;0.88;;;;;;;;;;5045572;28;20422;-62
2023/10/30 03:12:09;;;;;;;3.67;1.15;;;;;;;;;;5043119;28;20062;-62
2023/10/30 03:14:35;;;;;;;2.15;0.95;;;;;;;;;;5043554;28;20499;-62
2023/10/30 03:17:01;;;;;;;2.00;1.10;;;;;;;;;;5043648;28;20478;-62
2023/10/30 03:19:27;;;;;;;3.55;1.52;;;;;;;;;;5042835;28;20045;-62
2023/10/30 03:21:53;;;;;;;2.42;0.90;;;;;;;;;;5043650;28;20072;-62
2023/10/30 03:24:19;;;;;;;4.13;1.40;;;;;;;;;;5043318;28;20053;-63
2023/10/30 03:26:45;;;;;;;3.08;1.17;;;;;;;;;;5043918;28;20045;-62
2023/10/30 03:29:11;;;;;;;4.80;1.40;;;;;;;;;;5043083;28;20456;-62
2023/10/30 03:31:37;;;;;;;3.88;1.50;;;;;;;;;;5042134;28;20118;-62
2023/10/30 03:34:03;;;;;;;8.35;1.70;;;;;;;;;;5047396;28;20068;-62
2023/10/30 03:36:29;;;;;;;3.22;0.90;;;;;;;;;;5047092;28;20401;-62
2023/10/30 03:38:55;;;;;;;2.85;1.27;;;;;;;;;;5044681;28;20037;-62
2023/10/30 03:41:21;;;;;;;3.58;1.48;;;;;;;;;;5044820;28;20168;-62
2023/10/30 03:43:48;;;;;;;3.78;1.20;;;;;;;;;;5045185;28;20041;-62
2023/10/30 03:46:13;;;;;;;5.63;1.80;;;;;;;;;;5042339;28;20431;-62
2023/10/30 03:48:40;;;;;;;1.90;1.20;;;;;;;;;;5043289;28;20049;-62
2023/10/30 03:51:06;;;;;;;5.43;1.50;;;;;;;;;;5044580;28;20047;-62
2023/10/30 03:53:33;;;;;;;3.05;1.73;;;;;;;;;;5044501;28;20048;-62
2023/10/30 03:55:59;;;;;;;3.20;1.38;;;;;;;;;;5043089;28;20048;-63
2023/10/30 03:58:25;;;;;;;2.90;1.38;;;;;;;;;;5043184;28;20049;-62
2023/10/30 04:00:51;;;;;;;5.22;1.70;;;;;;;;;;5042654;28;20048;-62
2023/10/30 04:03:17;;;;;;;3.35;1.55;;;;;;;;;;5044518;28;20045;-63
2023/10/30 04:05:43;;;;;;;4.03;1.25;;;;;;;;;;5043607;28;20422;-62
2023/10/30 04:08:09;;;;;;;4.78;1.48;;;;;;;;;;5040281;28;20894;-62
2023/10/30 04:10:35;;;;;;;6.45;1.70;;;;;;;;;;5044347;28;20076;-62
2023/10/30 04:13:01;;;;;;;3.92;1.30;;;;;;;;;;5044726;28;20088;-62
2023/10/30 04:15:27;;;;;;;2.22;1.15;;;;;;;;;;5043562;28;20057;-62
2023/10/30 04:17:55;;;;;;;5.13;1.92;;;;;;;;;;5041838;28;20490;-63
2023/10/30 04:20:22;;;;;;;4.00;1.20;;;;;;;;;;5043034;28;20098;-63
2023/10/30 04:22:49;;;;;;;4.78;1.92;;;;;;;;;;5043341;28;20715;-62
2023/10/30 04:25:15;;;;;;;4.45;1.52;;;;;;;;;;5042124;28;20072;-62
2023/10/30 04:27:41;;;;;;;3.00;1.40;;;;;;;;;;5043290;28;20403;-62
2023/10/30 04:30:08;;;;;;;1.77;0.95;;;;;;;;;;5042853;28;20514;-62
2023/10/30 04:32:34;;;;;;;2.88;1.02;;;;;;;;;;5043702;28;20045;-62
2023/10/30 04:35:00;;;;;;;5.60;1.30;;;;;;;;;;5040943;28;20047;-62
2023/10/30 04:37:26;;;;;;;4.32;1.50;;;;;;;;;;5043746;28;20115;-62
2023/10/30 04:39:52;;;;;;;4.50;1.23;;;;;;;;;;5042150;28;20131;-62
2023/10/30 04:42:18;;;;;;;4.32;1.25;;;;;;;;;;5040781;28;20056;-62
2023/10/30 04:44:44;;;;;;;1.90;0.93;;;;;;;;;;5044100;28;20570;-62
2023/10/30 04:47:10;;;;;;;5.97;1.83;;;;;;;;;;5042982;28;20056;-62
2023/10/30 04:49:38;;;;;;;2.30;0.98;;;;;;;;;;5041140;28;20138;-62
2023/10/30 04:52:04;;;;;;;2.95;1.20;;;;;;;;;;5041869;28;20064;-62
2023/10/30 04:54:30;;;;;;;2.20;0.98;;;;;;;;;;5042571;28;20278;-62
2023/10/30 04:56:56;;;;;;;6.03;1.05;;;;;;;;;;5040507;28;20423;-62
2023/10/30 04:59:22;;;;;;;5.75;2.20;;;;;;;;;;5042031;28;20049;-62
2023/10/30 05:01:48;;;;;;;4.32;1.27;;;;;;;;;;5042408;28;20396;-62
2023/10/30 05:04:17;;;;;;;4.28;1.80;;;;;;;;;;5040511;28;20083;-62
2023/10/30 05:06:43;;;;;;;4.90;1.73;;;;;;;;;;5043180;28;20052;-63
2023/10/30 05:09:09;;;;;;;5.53;1.63;;;;;;;;;;5042319;28;20171;-62
2023/10/30 05:11:41;;;;;;;4.47;1.60;;;;;;;;;;5039817;28;20411;-62
2023/10/30 05:14:07;;;;;;;2.25;0.90;;;;;;;;;;5039625;28;20076;-62
2023/10/30 05:16:33;;;;;;;5.38;1.50;;;;;;;;;;5041798;28;20486;-62
2023/10/30 05:18:59;;;;;;;3.65;1.25;;;;;;;;;;5041554;28;20106;-62
2023/10/30 05:21:26;;;;;;;2.30;1.17;;;;;;;;;;5041022;28;20037;-62
2023/10/30 05:23:52;;;;;;;3.50;1.15;;;;;;;;;;5041218;28;20099;-63
2023/10/30 05:26:18;;;;;;;5.40;1.67;;;;;;;;;;5042360;28;20045;-62
2023/10/30 05:28:44;;;;;;;1.00;0.80;;;;;;;;;;5043500;28;20044;-62
2023/10/30 05:31:09;;;;;;;5.88;1.67;;;;;;;;;;5039784;28;20049;-62
2023/10/30 05:33:35;;;;;;;3.20;1.33;;;;;;;;;;5041164;28;20465;-62
2023/10/30 05:36:05;;;;;;;5.95;1.27;;;;;;;;;;5041828;28;20041;-63
2023/10/30 05:38:31;;;;;;;3.25;1.00;;;;;;;;;;5040360;28;20041;-62
2023/10/30 05:40:57;;;;;;;5.15;1.15;;;;;;;;;;5042171;28;20041;-62
2023/10/30 05:43:23;;;;;;;2.13;0.95;;;;;;;;;;5041525;28;20248;-63
2023/10/30 05:45:49;;;;;;;2.22;1.00;;;;;;;;;;5042461;28;20368;-62
2023/10/30 05:48:16;;;;;;;2.55;1.05;;;;;;;;;;5042489;28;20095;-62
2023/10/30 05:50:42;;;;;;;1.60;0.70;;;;;;;;;;5044406;28;20083;-62
2023/10/30 05:53:08;;;;;;;3.78;1.10;;;;;;;;;;5040503;28;20423;-63
2023/10/30 05:55:34;;;;;;;6.90;1.77;;;;;;;;;;5041168;28;20053;-62
2023/10/30 05:58:00;;;;;;;3.63;0.93;;;;;;;;;;5041157;28;20098;-62
2023/10/30 06:00:26;;;;;;;3.38;1.30;;;;;;;;;;5040266;28;20045;-63
2023/10/30 06:02:53;;;;;;;2.90;1.10;;;;;;;;;;5040178;28;20052;-62
2023/10/30 06:05:19;;;;;;;3.30;1.00;;;;;;;;;;5042078;28;20094;-63
2023/10/30 06:07:45;;;;;;;6.20;1.42;;;;;;;;;;5039621;28;20148;-63
2023/10/30 06:10:11;;;;;;;5.22;1.02;;;;;;;;;;5042256;28;20053;-64
2023/10/30 06:12:38;;;;;;;3.22;1.10;;;;;;;;;;5042279;28;20045;-63
2023/10/30 06:15:04;;;;;;;2.05;1.08;;;;;;;;;;5038955;28;20276;-63
2023/10/30 06:17:30;;;;;;;2.72;0.70;;;;;;;;;;5041065;28;20483;-63
2023/10/30 06:19:56;;;;;;;0.93;0.50;;;;;;;;;;5040517;28;20052;-63
2023/10/30 06:22:22;;;;;;;3.40;1.00;;;;;;;;;;5041650;28;20036;-63
2023/10/30 06:24:48;;;;;;;3.08;1.30;;;;;;;;;;5042184;28;20041;-63
2023/10/30 06:27:14;;;;;;;4.70;1.55;;;;;;;;;;5041183;28;20114;-63
2023/10/30 06:29:40;;;;;;;5.32;1.40;;;;;;;;;;5041814;28;20430;-63
2023/10/30 06:32:07;;;;;;;3.75;1.10;;;;;;;;;;5039332;28;20513;-63
2023/10/30 06:34:38;;;;;;;1.70;0.80;;;;;;;;;;5041615;28;20041;-63
2023/10/30 06:37:04;;;;;;;4.43;1.25;;;;;;;;;;5040219;28;20107;-63
2023/10/30 06:39:30;;;;;;;1.95;1.15;;;;;;;;;;5041917;28;20077;-63
2023/10/30 06:41:56;;;;;;;3.42;1.00;;;;;;;;;;5038440;28;20109;-63
2023/10/30 06:44:26;;;;;;;5.15;0.90;;;;;;;;;;5041490;28;20068;-63
2023/10/30 06:46:52;;;;;;;5.20;1.20;;;;;;;;;;5041703;28;20041;-63
2023/10/30 06:49:18;;;;;;;3.65;1.05;;;;;;;;;;5041147;28;20044;-63
2023/10/30 06:51:44;;;;;;;6.05;1.60;;;;;;;;;;5040330;28;20056;-62
2023/10/30 06:54:13;;;;;;;2.60;1.20;;;;;;;;;;5040722;28;20053;-63
2023/10/30 06:56:40;;;;;;;3.90;1.70;;;;;;;;;;5041229;28;20083;-63
2023/10/30 06:59:06;;;;;;;4.82;1.00;;;;;;;;;;5040398;28;20094;-63
2023/10/30 07:01:43;;;;;;;7.80;1.33;;;;;;;;;;5039634;28;20045;-63
2023/10/30 07:04:10;;;;;;;6.10;1.27;;;;;;;;;;5038208;28;20069;-63
2023/10/30 07:06:36;;;;;;;2.60;1.33;;;;;;;;;;5038583;28;20099;-63
2023/10/30 07:09:02;;;;;;;2.78;1.15;;;;;;;;;;5039785;28;20053;-63
2023/10/30 07:11:28;;;;;;;4.78;1.58;;;;;;;;;;5040488;28;21560;-63
2023/10/30 07:13:54;;;;;;;4.28;1.33;;;;;;;;;;5038453;28;20045;-63
2023/10/30 07:16:20;;;;;;;3.95;1.15;;;;;;;;;;5041249;28;20067;-63
2023/10/30 07:18:46;;;;;;;6.35;1.45;;;;;;;;;;5038236;28;20084;-63
2023/10/30 07:21:12;;;;;;;3.65;1.30;;;;;;;;;;5037498;28;20214;-63
2023/10/30 07:23:38;;;;;;;2.45;1.15;;;;;;;;;;5040529;28;20152;-63
2023/10/30 07:26:05;;;;;;;6.15;1.25;;;;;;;;;;5041119;28;20128;-63
2023/10/30 07:28:31;;;;;;;6.20;1.60;;;;;;;;;;5039445;28;20055;-63
2023/10/30 07:30:57;;;;;;;5.43;1.70;;;;;;;;;;5040803;28;20344;-63
2023/10/30 07:33:23;;;;;;;3.95;1.10;;;;;;;;;;5039366;28;20045;-63
2023/10/30 07:35:55;;;;;;;3.53;1.13;;;;;;;;;;5039135;28;20041;-63
2023/10/30 07:38:22;;;;;;;4.72;1.65;;;;;;;;;;5038062;28;20147;-63
2023/10/30 07:40:48;;;;;;;5.45;1.33;;;;;;;;;;5041076;28;20049;-62
2023/10/30 07:43:14;;;;;;;5.85;1.67;;;;;;;;;;5039749;28;20127;-63
2023/10/30 07:45:41;;;;;;;6.30;1.40;;;;;;;;;;5041933;28;20571;-63
2023/10/30 07:48:07;;;;;;;4.70;1.50;;;;;;;;;;5044312;28;20053;-62
2023/10/30 07:50:33;;;;;;;8.90;1.90;;;;;;;;;;5043941;28;20037;-63
2023/10/30 07:52:59;;;;;;;7.53;1.50;;;;;;;;;;5044192;28;20033;-63
2023/10/30 07:55:25;;;;;;;9.93;1.98;;;;;;;;;;5044176;28;20451;-64
2023/10/30 07:57:51;;;;;;;4.90;1.65;;;;;;;;;;5044052;28;20056;-64
2023/10/30 08:00:17;;;;;;;5.28;1.90;;;;;;;;;;5039752;28;20122;-64
2023/10/30 08:02:43;;;;;;;5.43;1.55;;;;;;;;;;5058817;28;20044;-64
2023/10/30 08:05:09;;;;;;;5.97;1.45;;;;;;;;;;5044143;28;20044;-63
2023/10/30 08:07:36;;;;;;;5.50;2.17;;;;;;;;;;5042597;28;20139;-64
2023/10/30 08:10:02;;;;;;;2.90;1.30;;;;;;;;;;5042770;28;20452;-64
2023/10/30 08:12:28;;;;;;;5.95;1.17;;;;;;;;;;5044170;28;20037;-64
2023/10/30 08:14:54;;;;;;;5.93;1.60;;;;;;;;;;5042015;28;20041;-64
2023/10/30 08:17:20;;;;;;;2.45;1.17;;;;;;;;;;5042956;28;20056;-64
2023/10/30 08:19:47;;;;;;;3.53;1.63;;;;;;;;;;5044555;28;20072;-64
2023/10/30 08:22:13;;;;;;;8.52;1.95;;;;;;;;;;5041548;28;20056;-64
2023/10/30 08:24:39;;;;;;;9.15;1.75;;;;;;;;;;5042421;28;20041;-64
2023/10/30 08:27:05;;;;;;;6.10;1.67;;;;;;;;;;5041742;28;20056;-64
2023/10/30 08:29:31;;;;;;;6.55;2.55;;;;;;;;;;5042555;28;20067;-64
2023/10/30 08:31:57;;;;;;;5.60;2.22;;;;;;;;;;5042108;28;20475;-64
2023/10/30 08:34:23;;;;;;;5.82;1.45;;;;;;;;;;5042138;28;20049;-67
2023/10/30 08:36:49;;;;;;;6.82;2.25;;;;;;;;;;5043185;28;20053;-63
2023/10/30 08:39:15;;;;;;;5.93;2.45;;;;;;;;;;5040670;28;20541;-63
2023/10/30 08:41:41;;;;;;;4.43;1.67;;;;;;;;;;5043175;28;20052;-64
2023/10/30 08:44:07;;;;;;;6.35;1.48;;;;;;;;;;5043722;28;20083;-64
2023/10/30 08:46:33;;;;;;;7.55;2.00;;;;;;;;;;5043768;28;20086;-65
2023/10/30 08:49:00;;;;;;;8.73;1.70;;;;;;;;;;5044894;28;20049;-70
2023/10/30 08:51:25;;;;;;;6.47;1.60;;;;;;;;;;5043695;28;20049;-66
2023/10/30 08:53:52;;;;;;;3.33;1.38;;;;;;;;;;5043945;28;20080;-63
2023/10/30 08:56:18;;;;;;;1.55;1.05;;;;;;;;;;5055467;28;20400;-75
2023/10/30 08:58:44;;;;;;;4.95;1.38;;;;;;;;;;5042248;28;20451;-64
2023/10/30 09:01:10;;;;;;;4.32;1.50;;;;;;;;;;5040717;28;20056;-65
2023/10/30 09:03:36;;;;;;;6.47;1.45;;;;;;;;;;5043616;28;20037;-65
2023/10/30 09:06:02;;;;;;;4.65;1.73;;;;;;;;;;5043849;28;20049;-65
2023/10/30 09:08:28;;;;;;;6.00;1.80;;;;;;;;;;5042903;28;20045;-65
2023/10/30 09:10:54;;;;;;;5.95;1.65;;;;;;;;;;5042766;28;20052;-65
2023/10/30 09:13:20;;;;;;;5.32;1.60;;;;;;;;;;5043172;28;20048;-66
2023/10/30 09:15:46;;;;;;;5.05;1.58;;;;;;;;;;5041474;28;20366;-64
2023/10/30 09:18:12;;;;;;;4.80;1.58;;;;;;;;;;5040178;28;20446;-64
2023/10/30 09:20:39;;;;;;;3.53;1.63;;;;;;;;;;5039651;28;20041;-65
2023/10/30 09:23:04;;;;;;;4.32;1.58;;;;;;;;;;5056230;28;20056;-64
2023/10/30 09:25:31;;;;;;;3.40;1.40;;;;;;;;;;5054126;28;20672;-64
2023/10/30 09:27:57;;;;;;;4.47;1.70;;;;;;;;;;5040093;28;20045;-63
2023/10/30 09:30:29;;;;;;;7.22;2.10;;;;;;;;;;5038159;28;20557;-64
2023/10/30 09:32:55;;;;;;;;;;;;;;;;;;5042157;28;20051;-63
2023/10/30 09:35:22;;;;;;;4.47;1.58;;;;;;;;;;5044580;28;20377;-63
2023/10/30 09:37:48;;;;;;;4.57;1.30;;;;;;;;;;5043528;28;20454;-63
2023/10/30 09:40:14;;;;;;;6.70;1.70;;;;;;;;;;5042730;28;20063;-63
2023/10/30 09:42:50;;;;;;;5.80;2.03;;;;;;;;;;5042931;28;20275;-62
2023/10/30 09:45:17;;;;;;;8.43;1.75;;;;;;;;;;5043504;28;20573;-63
2023/10/30 09:47:43;;;;;;;6.63;1.58;;;;;;;;;;5044986;28;20032;-63
2023/10/30 09:50:10;;;;;;;3.20;1.45;;;;;;;;;;5041499;28;20103;-63
2023/10/30 09:52:37;;;;;;;3.40;1.58;;;;;;;;;;5042195;28;20102;-63
2023/10/30 09:55:06;;;;;;;3.55;1.55;;;;;;;;;;5044059;28;20044;-63
2023/10/30 09:57:33;;;;;;;5.47;1.45;;;;;;;;;;5041995;28;20057;-62
2023/10/30 09:59:59;;;;;;;6.20;1.67;;;;;;;;;;5043793;28;20033;-63
2023/10/30 10:02:25;;;;;;;6.13;1.63;;;;;;;;;;5034670;28;20049;-63
2023/10/30 10:04:51;;;;;;;4.47;1.55;;;;;;;;;;5057931;28;20095;-62
2023/10/30 10:07:19;;;;;;;8.05;1.83;;;;;;;;;;5057733;28;20065;-62
2023/10/30 10:10:01;;;;;;;6.60;2.13;;;;;;;;;;5037439;28;20045;-62
2023/10/30 10:12:27;;;;;;;5.35;1.55;;;;;;;;;;5040006;28;20400;-63
2023/10/30 10:14:53;;;;;;;4.95;1.80;;;;;;;;;;5042316;28;20049;-62
2023/10/30 10:17:19;;;;;;;3.28;1.42;;;;;;;;;;5042460;28;20552;-62
2023/10/30 10:19:46;;;;;;;6.53;1.85;;;;;;;;;;5042513;28;20700;-62
2023/10/30 10:22:26;;;;;;;3.22;1.25;;;;;;;;;;5042340;28;20064;-63
2023/10/30 10:24:53;;;;;;;5.47;1.60;;;;;;;;;;5042988;28;20051;-63
2023/10/30 10:27:19;;;;;;;6.85;1.83;;;;;;;;;;5040968;28;20049;-63
2023/10/30 10:29:45;;;;;;;3.28;1.20;;;;;;;;;;5039105;28;20053;-63
2023/10/30 10:32:14;;;;;;;4.80;1.58;;;;;;;;;;5043535;28;20472;-62
2023/10/30 10:34:41;;;;;;;3.75;1.60;;;;;;;;;;5039318;28;20048;-62
2023/10/30 10:37:07;;;;;;;5.85;2.25;;;;;;;;;;5043310;28;20160;-62
2023/10/30 10:39:48;;;;;;;5.35;1.45;;;;;;;;;;5044459;28;20048;-62
2023/10/30 10:42:17;;;;;;;5.83;2.20;;;;;;;;;;5042890;28;20045;-62
2023/10/30 10:44:44;;;;;;;7.55;2.20;;;;;;;;;;5042038;28;20490;-62
2023/10/30 10:47:10;;;;;;;4.93;1.42;;;;;;;;;;5044078;28;20056;-62
2023/10/30 10:49:36;;;;;;;4.60;1.58;;;;;;;;;;5039059;28;20037;-62
2023/10/30 10:52:04;;;;;;;7.20;1.67;;;;;;;;;;5043467;28;20041;-62
2023/10/30 10:54:34;;;;;;;6.03;1.50;;;;;;;;;;5040512;28;20041;-63
2023/10/30 10:57:01;;;;;;;4.13;1.25;;;;;;;;;;5041189;28;20102;-62
2023/10/30 10:59:28;;;;;;;6.95;2.42;;;;;;;;;;5040509;28;20052;-62
2023/10/30 11:01:56;;;;;;;4.20;1.23;;;;;;;;;;5042599;28;20076;-62
2023/10/30 11:04:23;;;;;;;4.75;1.23;;;;;;;;;;5041745;28;20102;-62
2023/10/30 11:06:54;;;;;;;4.50;1.50;;;;;;;;;;5043070;28;20064;-62
2023/10/30 11:09:24;;;;;;;4.88;1.40;;;;;;;;;;5042439;28;20049;-62
2023/10/30 11:12:01;;;;;;;7.50;2.20;;;;;;;;;;5043647;28;20106;-63
2023/10/30 11:14:43;;;;;;;6.95;2.13;;;;;;;;;;5041261;28;20049;-62
2023/10/30 11:17:09;;;;;;;2.40;1.27;;;;;;;;;;5042593;28;20089;-62
2023/10/30 11:19:38;;;;;;;7.07;2.05;;;;;;;;;;5045738;28;20546;-62
2023/10/30 11:22:05;;;;;;;4.85;1.33;;;;;;;;;;5045086;28;20106;-62
2023/10/30 11:24:36;;;;;;;4.45;1.60;;;;;;;;;;5046056;28;20084;-62
2023/10/30 11:27:22;;;;;;;7.57;1.83;;;;;;;;;;5047158;28;20052;-62
2023/10/30 11:30:08;;;;;;;6.88;1.90;;;;;;;;;;5043438;28;20044;-64
2023/10/30 11:32:38;;;;;;;9.20;2.28;;;;;;;;;;5045347;28;20160;-63
2023/10/30 11:35:04;;;;;;;5.25;1.38;;;;;;;;;;5060585;28;20076;-63
2023/10/30 11:37:32;;;;;;;8.70;1.88;;;;;;;;;;5042057;28;20094;-64
2023/10/30 11:40:03;;;;;;;5.15;1.35;;;;;;;;;;5043623;28;20049;-63
2023/10/30 11:42:30;;;;;;;3.78;1.33;;;;;;;;;;5044779;28;20068;-64
2023/10/30 11:45:15;;;;;;;5.00;1.27;;;;;;;;;;5044908;28;20514;-63
2023/10/30 11:47:45;;;;;;;6.60;1.42;;;;;;;;;;5043905;28;20045;-63
2023/10/30 11:50:11;;;;;;;3.92;1.55;;;;;;;;;;5042862;28;20398;-63
2023/10/30 11:52:38;;;;;;;3.30;1.42;;;;;;;;;;5046290;28;20442;-63
2023/10/30 11:55:05;;;;;;;5.63;1.58;;;;;;;;;;5043829;28;20049;-63
2023/10/30 11:57:32;;;;;;;9.20;2.58;;;;;;;;;;5043960;28;20045;-63
2023/10/30 11:59:58;;;;;;;4.65;1.50;;;;;;;;;;5045570;28;20049;-64
2023/10/30 12:02:24;;;;;;;7.22;2.08;;;;;;;;;;5045888;28;20091;-63
2023/10/30 12:04:50;;;;;;;4.82;1.42;;;;;;;;;;5046651;28;20448;-63
2023/10/30 12:07:16;;;;;;;5.32;1.67;;;;;;;;;;5043695;28;20499;-63
2023/10/30 12:09:42;;;;;;;7.45;1.70;;;;;;;;;;5043303;28;20374;-63
2023/10/30 12:12:08;;;;;;;3.97;1.30;;;;;;;;;;5045682;28;20064;-64
2023/10/30 12:14:34;;;;;;;6.50;1.80;;;;;;;;;;5044812;28;20452;-63
2023/10/30 12:17:02;;;;;;;6.38;1.77;;;;;;;;;;5040260;28;20083;-63
2023/10/30 12:19:28;;;;;;;4.97;1.73;;;;;;;;;;5044768;28;20044;-63
2023/10/30 12:21:54;;;;;;;8.10;1.52;;;;;;;;;;5044302;28;20040;-63
2023/10/30 12:24:24;;;;;;;5.00;1.77;;;;;;;;;;5044586;28;20060;-63
2023/10/30 12:26:50;;;;;;;4.95;1.75;;;;;;;;;;5044190;28;20048;-62
2023/10/30 12:29:24;;;;;;;5.50;1.60;;;;;;;;;;5045253;28;20354;-65
2023/10/30 12:31:52;;;;;;;3.72;1.80;;;;;;;;;;5046162;28;20060;-64
2023/10/30 12:34:23;;;;;;;3.10;1.88;;;;;;;;;;5045349;28;20553;-64
2023/10/30 12:36:49;;;;;;;7.75;2.03;;;;;;;;;;5044575;28;20053;-78
2023/10/30 12:39:20;;;;;;;10.65;1.65;;;;;;;;;;5045876;28;20057;-64
2023/10/30 12:41:47;;;;;;;4.70;1.90;;;;;;;;;;5043623;28;20476;-63
2023/10/30 12:44:34;;;;;;;6.25;1.85;;;;;;;;;;5045490;28;20294;-62
2023/10/30 12:47:00;;;;;;;3.75;1.60;;;;;;;;;;5057010;28;20048;-63
2023/10/30 12:49:26;;;;;;;3.47;1.13;;;;;;;;;;5043295;28;20053;-63
2023/10/30 12:51:52;;;;;;;3.83;1.35;;;;;;;;;;5045574;28;20546;-63
2023/10/30 12:54:18;;;;;;;7.43;1.67;;;;;;;;;;5044685;28;20419;-63
2023/10/30 12:56:44;;;;;;;3.38;1.17;;;;;;;;;;5044864;28;20037;-63
2023/10/30 12:59:10;;;;;;;6.57;1.88;;;;;;;;;;5044353;28;20190;-63
2023/10/30 13:01:36;;;;;;;4.80;1.83;;;;;;;;;;5042899;28;20201;-63
2023/10/30 13:04:02;;;;;;;4.20;1.65;;;;;;;;;;5045169;28;20132;-63
2023/10/30 13:06:28;;;;;;;3.00;1.40;;;;;;;;;;5044618;28;20060;-63
2023/10/30 13:08:54;;;;;;;5.43;1.98;;;;;;;;;;5043179;28;20095;-63
2023/10/30 13:11:20;;;;;;;4.57;2.15;;;;;;;;;;5044727;28;20091;-63
2023/10/30 13:13:46;;;;;;;3.40;1.30;;;;;;;;;;5043641;28;20076;-63
2023/10/30 13:16:12;;;;;;;3.72;1.70;;;;;;;;;;5058453;28;20099;-63
2023/10/30 13:18:38;;;;;;;3.00;1.25;;;;;;;;;;5043213;28;20053;-63
2023/10/30 13:21:05;;;;;;;1.25;0.88;;;;;;;;;;5042918;28;20051;-63
2023/10/30 13:23:31;;;;;;;1.92;1.25;;;;;;;;;;5043269;28;20053;-63
2023/10/30 13:25:57;;;;;;;4.55;1.83;;;;;;;;;;5042967;28;20495;-63
2023/10/30 13:28:23;;;;;;;4.07;1.73;;;;;;;;;;5044145;28;20052;-63
2023/10/30 13:30:49;;;;;;;2.40;1.17;;;;;;;;;;5042197;28;20492;-63
2023/10/30 13:33:15;;;;;;;4.55;1.35;;;;;;;;;;5042263;28;20049;-64
2023/10/30 13:35:42;;;;;;;5.25;1.25;;;;;;;;;;5044431;28;20116;-63
2023/10/30 13:38:08;;;;;;;4.15;1.27;;;;;;;;;;5041038;28;20048;-64
2023/10/30 13:40:34;;;;;;;2.90;1.00;;;;;;;;;;5041438;28;20397;-63
2023/10/30 13:43:02;;;;;;;3.65;1.23;;;;;;;;;;5044056;28;20056;-63
2023/10/30 13:45:28;;;;;;;4.43;1.88;;;;;;;;;;5038604;28;20048;-63
2023/10/30 13:47:54;;;;;;;3.80;1.35;;;;;;;;;;5039942;28;20045;-63
2023/10/30 13:50:20;;;;;;;2.63;1.50;;;;;;;;;;5040380;28;20380;-63
2023/10/30 13:52:46;;;;;;;5.78;1.42;;;;;;;;;;5041830;28;20730;-63
2023/10/30 13:55:12;;;;;;;2.50;1.13;;;;;;;;;;5037482;28;20057;-63
2023/10/30 13:57:38;;;;;;;4.03;1.20;;;;;;;;;;5043927;28;20061;-63
2023/10/30 14:00:09;;;;;;;3.05;1.13;;;;;;;;;;5044587;28;20588;-63
2023/10/30 14:02:35;;;;;;;3.97;1.25;;;;;;;;;;5037500;28;20076;-63
2023/10/30 14:05:01;;;;;;;2.15;0.88;;;;;;;;;;5044073;28;20037;-63
2023/10/30 14:07:27;;;;;;;2.33;0.68;;;;;;;;;;5039756;28;20052;-63
2023/10/30 14:09:53;;;;;;;2.58;0.88;;;;;;;;;;5041932;28;20037;-63
2023/10/30 14:12:19;;;;;;;2.80;0.70;;;;;;;;;;5039850;28;20202;-63
2023/10/30 14:14:45;;;;;;;1.02;0.75;;;;;;;;;;5034474;28;20551;-63
2023/10/30 14:17:11;;;;;;;2.25;0.80;;;;;;;;;;5044658;28;20393;-63
2023/10/30 14:19:37;;;;;;;2.70;0.80;;;;;;;;;;5041233;28;20079;-63
2023/10/30 14:22:04;;;;;;;4.70;1.40;;;;;;;;;;5038192;28;20044;-63
2023/10/30 14:24:30;;;;;;;1.73;0.80;;;;;;;;;;5054536;28;20053;-63
2023/10/30 14:26:58;;;;;;;1.50;0.88;;;;;;;;;;5035427;28;20132;-63
2023/10/30 14:29:24;;;;;;;1.50;0.90;;;;;;;;;;5040065;28;20053;-63
2023/10/30 14:31:50;;;;;;;3.85;0.95;;;;;;;;;;5041603;28;20214;-63
2023/10/30 14:34:16;;;;;;;3.25;1.10;;;;;;;;;;5039950;28;20052;-63
2023/10/30 14:36:42;;;;;;;2.40;0.98;;;;;;;;;;5037922;28;20432;-63
2023/10/30 14:39:08;;;;;;;1.38;0.75;;;;;;;;;;5036579;28;20092;-63
2023/10/30 14:41:35;;;;;;;1.17;0.50;;;;;;;;;;5035331;28;20045;-63